Time;durP1;ratioP1;P1;durP2;ratioP2;P2;SDS_P1;SDS_P2;PMS_P1;PMS_P2;Temp;Humidity;BMP_temperature;BMP_pressure;BME280_temperature;BME280_humidity;BME280_pressure;Samples;Min_cycle;Max_cycle;Signal;HPM_P1;HPM_P2
2022/12/23 00:00:38;;;;;;;4.60;3.33;;;6.70;99.90;;;;;;5030118;28;20041;-81
2022/12/23 00:03:04;;;;;;;0.88;0.80;;;6.70;99.90;;;;;;5029443;28;20103;-81
2022/12/23 00:05:29;;;;;;;0.63;0.63;;;6.70;99.90;;;;;;5037578;28;20049;-80
2022/12/23 00:07:55;;;;;;;2.60;2.40;;;6.70;99.90;;;;;;5022306;28;20053;-81
2022/12/23 00:10:21;;;;;;;0.45;0.45;;;6.70;99.90;;;;;;5046116;28;20032;-81
2022/12/23 00:15:31;;;;;;;1.27;1.13;;;6.70;99.90;;;;;;5043666;28;20498;-81
2022/12/23 00:17:57;;;;;;;5.35;3.20;;;6.70;99.90;;;;;;5050297;28;20569;-81
2022/12/23 00:20:23;;;;;;;3.63;2.80;;;6.70;99.90;;;;;;5050770;28;20052;-80
2022/12/23 00:23:04;;;;;;;3.25;2.95;;;6.70;99.90;;;;;;5033036;28;20199;-81
2022/12/23 00:25:39;;;;;;;4.10;1.95;;;6.70;99.90;;;;;;5031392;28;20092;-81
2022/12/23 00:28:10;;;;;;;2.55;1.77;;;6.80;99.90;;;;;;5041436;28;20049;-80
2022/12/23 00:31:04;;;;;;;2.17;1.67;;;6.70;99.90;;;;;;5051688;28;20047;-81
2022/12/23 00:33:35;;;;;;;1.60;1.48;;;6.70;99.90;;;;;;5031586;28;20108;-80
2022/12/23 00:36:02;;;;;;;4.07;0.88;;;6.70;99.90;;;;;;5030710;28;20041;-81
2022/12/23 00:44:00;;;;;;;1.63;1.13;;;6.70;99.90;;;;;;5031530;28;20054;-80
2022/12/23 00:46:26;;;;;;;1.67;1.58;;;6.70;99.90;;;;;;5051036;28;20057;-81
2022/12/23 00:51:37;;;;;;;7.50;2.80;;;6.70;99.90;;;;;;5036700;28;20135;-80
2022/12/23 00:54:03;;;;;;;4.43;4.03;;;6.60;99.90;;;;;;5050406;28;20141;-80
2022/12/23 00:56:29;;;;;;;1.55;1.45;;;6.60;99.90;;;;;;5050031;28;20076;-81
2022/12/23 00:58:55;;;;;;;4.60;2.05;;;6.60;99.90;;;;;;5050209;28;20045;-81
2022/12/23 01:06:49;;;;;;;2.15;0.60;;;6.60;99.90;;;;;;5050370;28;20135;-80
2022/12/23 01:09:15;;;;;;;1.10;1.00;;;6.60;99.90;;;;;;5032493;28;20073;-81
2022/12/23 01:11:41;;;;;;;0.25;0.22;;;6.60;99.90;;;;;;5031271;28;20044;-81
2022/12/23 01:14:08;;;;;;;8.65;2.17;;;6.70;99.90;;;;;;5030708;28;20049;-80
2022/12/23 01:16:37;;;;;;;5.95;2.20;;;6.70;99.90;;;;;;5012024;28;20077;-82
2022/12/23 01:19:04;;;;;;;1.05;0.98;;;6.70;99.90;;;;;;5030293;28;20053;-81
2022/12/23 01:21:30;;;;;;;0.35;0.35;;;6.70;99.90;;;;;;5030243;28;20079;-82
2022/12/23 01:23:55;;;;;;;0.93;0.90;;;7.40;99.90;;;;;;5029650;28;20042;-81
2022/12/23 01:26:21;;;;;;;3.40;1.25;;;6.80;99.90;;;;;;5029790;28;20042;-81
2022/12/23 01:28:47;;;;;;;3.85;2.35;;;6.80;99.90;;;;;;5042996;28;20048;-81
2022/12/23 01:31:13;;;;;;;1.38;1.08;;;6.80;99.90;;;;;;5049379;28;20410;-81
2022/12/23 01:33:38;;;;;;;1.65;0.60;;;6.80;99.90;;;;;;5011574;28;20471;-81
2022/12/23 01:36:06;;;;;;;2.15;1.33;;;6.80;99.90;;;;;;5028767;28;20045;-81
2022/12/23 01:38:33;;;;;;;5.10;0.80;;;6.80;99.90;;;;;;5029616;28;20058;-81
2022/12/23 01:40:59;;;;;;;1.35;0.65;;;6.80;99.90;;;;;;5030528;28;20041;-81
2022/12/23 01:44:23;;;;;;;1.50;1.40;;;6.80;99.90;;;;;;5028848;28;20522;-82
2022/12/23 01:46:49;;;;;;;0.77;0.77;;;6.80;99.90;;;;;;4967694;28;20520;-81
2022/12/23 01:49:15;;;;;;;1.75;1.65;;;6.80;99.90;;;;;;4968227;28;20082;-82
2022/12/23 01:51:40;;;;;;;0.63;0.60;;;6.70;99.90;;;;;;4993268;28;20513;-81
2022/12/23 01:54:06;;;;;;;4.53;1.00;;;6.70;99.90;;;;;;5049033;28;20099;-82
2022/12/23 01:56:39;;;;;;;1.88;1.35;;;6.70;99.90;;;;;;5049559;28;20045;-80
2022/12/23 01:59:10;;;;;;;1.27;0.95;;;6.70;99.90;;;;;;5047574;28;20063;-81
2022/12/23 02:04:23;;;;;;;0.47;0.47;;;6.70;99.90;;;;;;5048610;28;20057;-81
2022/12/23 02:09:37;;;;;;;0.77;0.77;;;7.60;99.90;;;;;;5049123;28;20486;-81
2022/12/23 02:12:24;;;;;;;0.15;0.15;;;6.70;99.90;;;;;;5024172;28;20084;-80
2022/12/23 02:18:02;;;;;;;0.93;0.90;;;6.70;99.90;;;;;;5030465;28;20045;-79
2022/12/23 02:21:10;;;;;;;5.40;1.42;;;6.70;99.90;;;;;;5029650;28;20057;-81
2022/12/23 02:24:06;;;;;;;0.52;0.52;;;6.80;99.90;;;;;;5029008;28;20053;-80
2022/12/23 02:26:52;;;;;;;1.30;1.08;;;6.80;99.90;;;;;;5029391;28;20049;-80
2022/12/23 02:29:23;;;;;;;1.80;1.05;;;6.80;99.90;;;;;;5043984;28;20103;-80
2022/12/23 02:32:22;;;;;;;7.13;1.65;;;6.80;99.90;;;;;;5046418;28;20056;-79
2022/12/23 02:34:55;;;;;;;1.48;1.33;;;6.80;99.90;;;;;;5047638;28;20187;-80
2022/12/23 02:37:31;;;;;;;9.98;2.65;;;7.10;99.90;;;;;;5048927;28;20051;-80
2022/12/23 02:40:10;;;;;;;1.05;1.02;;;6.80;99.90;;;;;;5048833;28;20045;-80
2022/12/23 02:42:46;;;;;;;3.20;2.55;;;6.80;99.90;;;;;;5047434;28;20041;-79
2022/12/23 02:45:19;;;;;;;;;;;6.80;99.90;;;;;;5046562;28;20597;-80
2022/12/23 02:48:29;;;;;;;3.65;1.55;;;6.80;99.90;;;;;;5045857;28;20381;-80
2022/12/23 02:50:56;;;;;;;2.67;2.40;;;6.80;99.90;;;;;;5046766;28;20049;-80
2022/12/23 02:53:36;;;;;;;2.40;1.80;;;6.90;99.90;;;;;;5045653;28;20645;-80
2022/12/23 02:56:05;;;;;;;4.53;2.90;;;6.80;99.90;;;;;;5045926;28;20375;-79
2022/12/23 02:58:36;;;;;;;2.95;1.92;;;6.80;99.90;;;;;;5037680;28;20045;-80
2022/12/23 03:01:05;;;;;;;1.10;0.98;;;6.80;99.90;;;;;;5028112;28;20088;-80
2022/12/23 03:03:31;;;;;;;3.35;2.53;;;6.80;99.90;;;;;;5043127;28;20045;-80
2022/12/23 03:05:57;;;;;;;3.80;2.03;;;6.90;99.90;;;;;;5051221;28;20067;-80
2022/12/23 03:08:30;;;;;;;17.38;1.08;;;6.80;99.90;;;;;;5050469;28;20483;-80
2022/12/23 03:11:10;;;;;;;3.67;1.50;;;6.80;99.90;;;;;;5047317;28;20079;-80
2022/12/23 03:13:50;;;;;;;2.00;1.80;;;6.80;99.90;;;;;;5034976;28;20053;-80
2022/12/23 03:16:25;;;;;;;3.47;1.58;;;6.80;99.90;;;;;;5030502;28;20060;-80
2022/12/23 03:19:09;;;;;;;4.25;2.15;;;6.80;99.90;;;;;;5032247;28;20053;-79
2022/12/23 03:21:52;;;;;;;2.03;1.83;;;6.80;99.90;;;;;;5033693;28;20064;-80
2022/12/23 03:24:33;;;;;;;4.20;2.85;;;6.80;99.90;;;;;;5033367;28;20053;-80
2022/12/23 03:27:14;;;;;;;2.05;1.60;;;6.80;99.90;;;;;;5033509;28;20128;-80
2022/12/23 03:29:47;;;;;;;2.83;2.20;;;6.80;99.90;;;;;;5049363;28;20090;-80
2022/12/23 03:32:14;;;;;;;12.75;4.72;;;6.80;99.90;;;;;;5051788;28;20557;-81
2022/12/23 03:34:44;;;;;;;0.70;0.70;;;6.80;99.90;;;;;;5026904;28;20081;-81
2022/12/23 03:37:14;;;;;;;0.77;0.77;;;6.80;99.90;;;;;;5031671;28;20056;-81
2022/12/23 03:39:47;;;;;;;2.00;1.80;;;6.80;99.90;;;;;;5032304;28;20073;-81
2022/12/23 03:42:31;;;;;;;4.95;2.15;;;7.80;99.90;;;;;;5033010;28;20169;-80
2022/12/23 03:45:00;;;;;;;1.65;1.20;;;6.70;99.90;;;;;;5032002;28;20056;-80
2022/12/23 03:47:53;;;;;;;2.88;2.63;;;6.70;99.90;;;;;;5031758;28;20099;-79
2022/12/23 03:50:22;;;;;;;5.43;1.90;;;6.80;99.90;;;;;;5030826;28;20099;-79
2022/12/23 03:52:57;;;;;;;2.88;1.63;;;6.80;99.90;;;;;;5037155;28;20100;-80
2022/12/23 03:55:32;;;;;;;1.33;1.23;;;6.80;99.90;;;;;;5050569;28;20052;-79
2022/12/23 03:58:09;;;;;;;4.13;2.88;;;6.80;99.90;;;;;;5051101;28;20088;-79
2022/12/23 04:00:44;;;;;;;2.08;1.63;;;6.80;99.90;;;;;;5050959;28;20414;-80
2022/12/23 04:03:22;;;;;;;1.67;1.57;;;6.80;99.90;;;;;;5050997;28;20048;-80
2022/12/23 04:05:56;;;;;;;2.22;1.80;;;6.70;99.90;;;;;;5051499;28;20057;-80
2022/12/23 04:08:35;;;;;;;4.07;0.95;;;6.70;99.90;;;;;;5051375;28;20049;-80
2022/12/23 04:11:01;;;;;;;1.50;1.40;;;6.70;99.90;;;;;;5051854;28;20045;-79
2022/12/23 04:13:27;;;;;;;1.00;0.90;;;6.70;99.90;;;;;;5041193;28;20053;-80
2022/12/23 04:15:53;;;;;;;1.25;1.20;;;6.70;99.90;;;;;;5030727;28;20294;-80
2022/12/23 04:18:19;;;;;;;9.13;1.73;;;6.60;99.90;;;;;;5030795;28;20120;-80
2022/12/23 04:20:45;;;;;;;1.55;1.45;;;6.60;99.90;;;;;;5031061;28;20457;-80
2022/12/23 04:23:10;;;;;;;1.20;1.15;;;6.60;99.90;;;;;;5020198;28;20052;-80
2022/12/23 04:25:36;;;;;;;3.80;3.28;;;6.60;99.90;;;;;;5050569;28;20521;-80
2022/12/23 04:28:02;;;;;;;6.47;2.40;;;6.60;99.90;;;;;;5048717;28;20037;-80
2022/12/23 04:30:28;;;;;;;0.52;0.52;;;6.60;99.90;;;;;;5050758;28;20106;-80
2022/12/23 04:32:53;;;;;;;2.13;1.75;;;6.60;99.90;;;;;;5050823;28;20516;-79
2022/12/23 04:35:20;;;;;;;4.45;2.42;;;6.60;99.90;;;;;;5050737;28;20049;-79
2022/12/23 04:37:45;;;;;;;1.73;1.45;;;6.60;99.90;;;;;;5050478;28;20534;-80
2022/12/23 04:40:11;;;;;;;1.40;1.30;;;6.60;99.90;;;;;;5051089;28;20132;-80
2022/12/23 04:42:37;;;;;;;4.18;3.35;;;6.60;99.90;;;;;;5049453;28;20241;-80
2022/12/23 04:45:03;;;;;;;1.60;1.15;;;6.60;99.90;;;;;;5031588;28;20383;-80
2022/12/23 04:47:29;;;;;;;2.90;2.17;;;6.60;99.90;;;;;;5030973;28;20605;-80
2022/12/23 04:49:54;;;;;;;1.77;1.63;;;6.60;99.90;;;;;;5030637;28;20136;-80
2022/12/23 04:52:20;;;;;;;1.13;0.85;;;6.60;99.90;;;;;;5030928;28;20052;-80
2022/12/23 04:54:46;;;;;;;1.95;1.77;;;6.60;99.90;;;;;;5015844;28;20060;-79
2022/12/23 04:57:12;;;;;;;0.43;0.32;;;6.60;99.90;;;;;;5050798;28;20056;-79
2022/12/23 04:59:38;;;;;;;2.08;1.70;;;6.60;99.90;;;;;;5051142;28;20049;-79
2022/12/23 05:02:03;;;;;;;1.08;1.02;;;6.60;99.90;;;;;;5050737;28;20041;-80
2022/12/23 05:04:29;;;;;;;0.88;0.55;;;6.60;99.90;;;;;;5051397;28;20091;-80
2022/12/23 05:06:54;;;;;;;2.50;1.60;;;6.60;99.90;;;;;;5046994;28;20041;-80
2022/12/23 05:09:20;;;;;;;1.75;1.20;;;6.60;99.90;;;;;;5030055;28;20380;-80
2022/12/23 05:11:46;;;;;;;0.90;0.90;;;6.60;99.90;;;;;;5027113;28;20049;-80
2022/12/23 05:14:12;;;;;;;4.70;2.47;;;6.60;99.90;;;;;;5027484;28;20081;-79
2022/12/23 05:16:38;;;;;;;2.20;1.27;;;6.60;99.90;;;;;;5028171;28;20048;-79
2022/12/23 05:19:04;;;;;;;2.05;1.73;;;6.50;99.90;;;;;;5029763;28;20517;-79
2022/12/23 05:21:30;;;;;;;5.28;2.10;;;6.60;99.90;;;;;;5027785;28;20292;-80
2022/12/23 05:23:55;;;;;;;1.35;1.13;;;6.50;99.90;;;;;;5042195;28;20483;-81
2022/12/23 05:26:21;;;;;;;3.10;2.85;;;6.50;99.90;;;;;;5050240;28;20088;-79
2022/12/23 05:28:47;;;;;;;2.42;2.22;;;6.50;99.90;;;;;;5033919;28;20045;-80
2022/12/23 05:31:13;;;;;;;7.63;3.72;;;6.50;99.90;;;;;;5031481;28;20124;-80
2022/12/23 05:33:39;;;;;;;7.15;1.23;;;6.40;99.90;;;;;;5038299;28;20049;-80
2022/12/23 05:36:06;;;;;;;1.52;1.40;;;6.40;99.90;;;;;;5047046;28;20060;-80
2022/12/23 05:38:32;;;;;;;3.15;1.98;;;6.40;99.90;;;;;;5034031;28;20406;-79
2022/12/23 05:40:57;;;;;;;0.93;0.90;;;6.30;99.90;;;;;;5037387;28;20072;-80
2022/12/23 05:43:23;;;;;;;4.43;1.45;;;6.30;99.90;;;;;;5047293;28;20044;-80
2022/12/23 05:45:49;;;;;;;2.05;1.75;;;6.30;99.90;;;;;;5029290;28;20048;-79
2022/12/23 05:48:15;;;;;;;7.82;4.65;;;6.40;99.90;;;;;;5049750;28;20515;-80
2022/12/23 05:50:41;;;;;;;2.67;1.75;;;6.40;99.90;;;;;;5051053;28;20460;-79
2022/12/23 05:53:08;;;;;;;2.88;2.67;;;6.40;99.90;;;;;;5044355;28;20033;-80
2022/12/23 05:55:34;;;;;;;6.10;2.50;;;6.50;99.90;;;;;;5030142;28;20144;-80
2022/12/23 05:58:00;;;;;;;4.00;2.03;;;6.50;99.90;;;;;;5033434;28;20041;-79
2022/12/23 06:00:26;;;;;;;2.03;1.92;;;6.50;99.90;;;;;;5047038;28;20048;-79
2022/12/23 06:02:52;;;;;;;18.17;3.75;;;6.50;99.90;;;;;;5044834;28;20102;-80
2022/12/23 06:05:18;;;;;;;3.83;2.10;;;6.50;99.90;;;;;;5026541;28;20049;-79
2022/12/23 06:07:43;;;;;;;4.07;2.13;;;6.50;99.90;;;;;;5029131;28;20037;-79
2022/12/23 06:10:10;;;;;;;6.60;1.65;;;6.50;99.90;;;;;;5041082;28;20096;-79
2022/12/23 06:12:36;;;;;;;4.65;2.83;;;6.50;99.90;;;;;;5008698;28;20059;-79
2022/12/23 06:15:03;;;;;;;1.65;1.55;;;6.50;99.90;;;;;;5028073;28;20053;-80
2022/12/23 06:17:29;;;;;;;3.13;2.67;;;6.50;99.90;;;;;;5030249;28;20045;-80
2022/12/23 06:19:54;;;;;;;2.05;1.88;;;6.50;99.90;;;;;;5050663;28;20049;-80
2022/12/23 06:22:20;;;;;;;0.82;0.82;;;6.40;99.90;;;;;;5050013;28;20513;-80
2022/12/23 06:24:47;;;;;;;1.10;0.98;;;6.40;99.90;;;;;;5015837;28;20037;-80
2022/12/23 06:27:13;;;;;;;1.65;1.55;;;6.30;99.90;;;;;;5029921;28;20686;-80
2022/12/23 06:29:39;;;;;;;1.40;0.98;;;6.30;99.90;;;;;;5046246;28;20549;-80
2022/12/23 06:32:05;;;;;;;1.23;1.17;;;6.30;99.90;;;;;;5031537;28;20073;-80
2022/12/23 06:34:30;;;;;;;1.45;1.35;;;6.30;99.90;;;;;;5044453;28;20106;-80
2022/12/23 06:36:56;;;;;;;1.10;1.05;;;6.30;99.90;;;;;;5039637;28;20483;-80
2022/12/23 06:39:23;;;;;;;3.33;2.28;;;6.20;99.90;;;;;;5033051;28;20379;-80
2022/12/23 06:41:48;;;;;;;1.42;1.33;;;6.20;99.90;;;;;;5033772;28;20059;-80
2022/12/23 06:44:14;;;;;;;5.32;2.13;;;6.20;99.90;;;;;;5045723;28;20044;-79
2022/12/23 06:46:40;;;;;;;1.25;1.13;;;6.10;99.90;;;;;;5051893;28;20519;-80
2022/12/23 06:49:06;;;;;;;5.53;2.97;;;6.00;99.90;;;;;;5042214;28;20274;-80
2022/12/23 06:51:32;;;;;;;4.03;2.05;;;6.00;99.90;;;;;;5033222;28;20041;-80
2022/12/23 06:53:59;;;;;;;1.65;1.33;;;6.10;99.90;;;;;;5032537;28;20048;-81
2022/12/23 06:56:24;;;;;;;1.38;1.27;;;6.10;99.90;;;;;;5028485;28;20077;-79
2022/12/23 06:58:51;;;;;;;2.08;1.52;;;6.20;99.90;;;;;;5028344;28;20104;-79
2022/12/23 07:01:20;;;;;;;1.42;1.25;;;6.20;99.90;;;;;;5029431;28;20402;-80
2022/12/23 07:03:46;;;;;;;1.10;1.00;;;6.20;99.90;;;;;;5029865;28;20053;-79
2022/12/23 07:06:12;;;;;;;5.32;2.08;;;6.20;99.90;;;;;;5028668;28;20549;-79
2022/12/23 07:08:38;;;;;;;1.50;1.40;;;6.20;99.90;;;;;;5030042;28;20037;-80
2022/12/23 07:11:04;;;;;;;1.52;1.40;;;6.20;99.90;;;;;;5029880;28;20132;-79
2022/12/23 07:13:31;;;;;;;1.40;1.30;;;6.20;99.90;;;;;;5028594;28;20572;-79
2022/12/23 07:15:57;;;;;;;0.52;0.52;;;6.20;99.90;;;;;;5034262;28;20148;-80
2022/12/23 07:18:23;;;;;;;0.57;0.57;;;6.20;99.90;;;;;;5031654;28;20518;-80
2022/12/23 07:20:50;;;;;;;2.60;2.20;;;6.60;99.90;;;;;;5029659;28;20053;-79
2022/12/23 07:23:16;;;;;;;0.60;0.55;;;6.10;99.90;;;;;;5029174;28;20041;-79
2022/12/23 07:25:42;;;;;;;0.93;0.75;;;6.10;99.90;;;;;;5028654;28;20505;-80
2022/12/23 07:28:07;;;;;;;0.88;0.85;;;7.00;99.90;;;;;;5012884;28;20065;-80
2022/12/23 07:30:34;;;;;;;0.32;0.32;;;6.10;99.90;;;;;;5032026;28;20057;-80
2022/12/23 07:33:00;;;;;;;1.83;1.73;;;6.10;99.90;;;;;;5038366;28;20040;-80
2022/12/23 07:35:26;;;;;;;0.32;0.32;;;6.10;99.90;;;;;;5040237;28;20500;-79
2022/12/23 07:37:52;;;;;;;2.38;2.17;;;7.10;99.90;;;;;;5031754;28;20415;-80
2022/12/23 07:40:18;;;;;;;1.48;1.38;;;6.10;99.90;;;;;;5010074;28;20058;-79
2022/12/23 07:42:48;;;;;;;4.75;2.05;;;6.10;99.90;;;;;;5027397;28;20837;-79
2022/12/23 07:45:14;;;;;;;1.45;0.90;;;6.10;99.90;;;;;;5028363;28;20222;-79
2022/12/23 07:47:40;;;;;;;0.30;0.20;;;6.10;99.90;;;;;;5027087;28;20050;-79
2022/12/23 07:50:06;;;;;;;1.27;1.15;;;6.10;99.90;;;;;;5029429;28;20053;-80
2022/12/23 07:52:32;;;;;;;0.57;0.57;;;6.10;99.90;;;;;;5035079;28;20037;-80
2022/12/23 07:54:57;;;;;;;3.95;2.38;;;6.10;99.90;;;;;;5050299;28;20114;-79
2022/12/23 07:57:23;;;;;;;0.50;0.50;;;6.10;99.90;;;;;;5050573;28;20597;-80
2022/12/23 07:59:49;;;;;;;0.90;0.85;;;6.10;99.90;;;;;;5056798;28;20048;-79
2022/12/23 08:02:14;;;;;;;3.88;0.25;;;6.10;99.90;;;;;;5045886;28;20045;-79
2022/12/23 08:04:40;;;;;;;0.52;0.52;;;6.10;99.90;;;;;;5046352;28;20102;-79
2022/12/23 08:07:05;;;;;;;2.38;1.63;;;6.10;99.90;;;;;;5046278;28;20505;-79
2022/12/23 08:09:31;;;;;;;1.15;1.05;;;6.10;99.90;;;;;;5038881;28;20033;-79
2022/12/23 08:11:57;;;;;;;0.57;0.57;;;6.10;99.90;;;;;;5025953;28;20053;-79
2022/12/23 08:14:22;;;;;;;0.75;0.68;;;6.10;99.90;;;;;;5009572;28;20052;-79
2022/12/23 08:16:48;;;;;;;3.33;1.80;;;6.10;99.90;;;;;;5044773;28;20546;-79
2022/12/23 08:19:14;;;;;;;1.35;1.25;;;6.20;99.90;;;;;;5025694;28;20482;-79
2022/12/23 08:21:39;;;;;;;0.50;0.50;;;6.10;99.90;;;;;;5044747;28;20306;-79
2022/12/23 08:24:05;;;;;;;0.10;0.10;;;6.20;99.90;;;;;;5039564;28;20039;-79
2022/12/23 08:26:31;;;;;;;2.22;1.45;;;6.20;99.90;;;;;;5046338;28;20090;-79
2022/12/23 08:28:59;;;;;;;0.73;0.73;;;6.20;99.90;;;;;;5011949;28;20120;-79
2022/12/23 08:31:32;;;;;;;2.42;1.55;;;6.20;99.90;;;;;;5025938;28;20108;-80
2022/12/23 08:33:59;;;;;;;0.75;0.50;;;6.20;99.90;;;;;;5033536;28;20056;-79
2022/12/23 08:36:29;;;;;;;0.43;0.43;;;6.20;99.90;;;;;;5030870;28;20102;-79
2022/12/23 08:38:56;;;;;;;1.92;1.17;;;6.20;99.90;;;;;;5026582;28;20147;-79
2022/12/23 08:41:29;;;;;;;3.25;1.55;;;6.20;99.90;;;;;;5036799;28;20056;-79
2022/12/23 08:43:55;;;;;;;1.25;1.00;;;6.10;99.90;;;;;;5043255;28;20041;-79
2022/12/23 08:46:21;;;;;;;2.53;2.15;;;6.00;99.90;;;;;;5046041;28;20056;-80
2022/12/23 08:48:47;;;;;;;2.10;1.95;;;6.00;99.90;;;;;;5031787;28;20037;-79
2022/12/23 08:51:15;;;;;;;1.63;0.75;;;5.90;99.90;;;;;;5036109;28;20040;-79
2022/12/23 08:53:41;;;;;;;0.70;0.70;;;5.90;99.90;;;;;;5039210;28;20600;-79
2022/12/23 08:56:10;;;;;;;2.80;2.08;;;6.00;99.90;;;;;;5047956;28;20037;-79
2022/12/23 08:58:38;;;;;;;1.30;0.80;;;6.00;99.90;;;;;;5048285;28;20076;-79
2022/12/23 09:01:06;;;;;;;0.25;0.25;;;6.10;99.90;;;;;;5048347;28;20125;-79
2022/12/23 09:03:32;;;;;;;0.32;0.32;;;6.20;99.90;;;;;;5040860;28;20037;-79
2022/12/23 09:05:58;;;;;;;0.95;0.52;;;6.30;99.90;;;;;;5043310;28;20053;-79
2022/12/23 09:08:23;;;;;;;4.75;1.65;;;6.30;99.90;;;;;;5050085;28;20052;-79
2022/12/23 09:10:49;;;;;;;0.95;0.95;;;6.30;99.90;;;;;;5051450;28;20048;-79
2022/12/23 09:13:15;;;;;;;0.80;0.80;;;6.40;99.90;;;;;;5052292;28;20053;-79
2022/12/23 09:15:44;;;;;;;0.73;0.65;;;6.40;99.90;;;;;;5034274;28;20045;-79
2022/12/23 09:18:10;;;;;;;0.25;0.25;;;6.40;99.90;;;;;;5037463;28;20532;-80
2022/12/23 09:20:37;;;;;;;1.05;0.95;;;6.50;99.90;;;;;;5059651;28;20220;-80
2022/12/23 09:23:04;;;;;;;0.75;0.63;;;6.60;99.90;;;;;;5058126;28;20086;-80
2022/12/23 09:25:30;;;;;;;1.00;0.95;;;6.60;99.90;;;;;;5055117;28;20036;-80
2022/12/23 09:27:57;;;;;;;0.55;0.55;;;6.70;99.90;;;;;;5056390;28;20068;-80
2022/12/23 09:30:23;;;;;;;0.57;0.57;;;6.70;99.90;;;;;;5045243;28;20045;-80
2022/12/23 09:32:49;;;;;;;0.63;0.45;;;6.70;99.90;;;;;;5034373;28;20060;-80
2022/12/23 09:35:15;;;;;;;1.48;0.80;;;6.80;99.90;;;;;;5040332;28;20041;-80
2022/12/23 09:37:41;;;;;;;0.28;0.28;;;6.80;99.90;;;;;;5033309;28;20037;-80
2022/12/23 09:40:11;;;;;;;0.20;0.20;;;6.80;99.90;;;;;;5040734;28;20526;-80
2022/12/23 09:42:58;;;;;;;0.52;0.52;;;6.90;99.90;;;;;;5049929;28;20179;-80
2022/12/23 09:46:00;;;;;;;0.73;0.73;;;6.90;99.90;;;;;;5049396;28;20037;-81
2022/12/23 09:48:32;;;;;;;1.05;0.65;;;6.90;99.90;;;;;;5034180;28;20057;-80
2022/12/23 09:50:59;;;;;;;4.60;1.15;;;6.90;99.90;;;;;;5028933;28;20520;-80
2022/12/23 09:53:36;;;;;;;1.60;1.50;;;7.00;99.90;;;;;;5032828;28;20048;-80
2022/12/23 09:56:22;;;;;;;3.13;1.27;;;7.10;99.90;;;;;;5028271;28;20502;-80
2022/12/23 09:59:11;;;;;;;1.05;0.95;;;7.20;99.90;;;;;;5041231;28;20099;-80
2022/12/23 10:01:53;;;;;;;2.53;2.03;;;7.30;99.90;;;;;;5057225;28;20056;-80
2022/12/23 10:04:31;;;;;;;1.45;1.35;;;7.40;99.90;;;;;;5050118;28;20507;-80
2022/12/23 10:07:03;;;;;;;1.65;1.25;;;7.50;99.90;;;;;;5056538;28;20064;-81
2022/12/23 10:09:31;;;;;;;1.08;0.98;;;7.50;99.90;;;;;;5030923;28;20136;-80
2022/12/23 10:11:58;;;;;;;1.08;0.80;;;7.50;99.90;;;;;;5031253;28;20125;-81
2022/12/23 10:14:28;;;;;;;0.65;0.57;;;7.50;99.90;;;;;;5033887;28;20487;-80
2022/12/23 10:17:06;;;;;;;2.50;2.30;;;7.50;99.90;;;;;;5035142;28;20052;-80
2022/12/23 10:19:40;;;;;;;0.73;0.73;;;7.50;99.90;;;;;;5043962;28;20041;-80
2022/12/23 10:22:45;;;;;;;1.33;0.45;;;7.40;99.90;;;;;;5056043;28;20108;-80
2022/12/23 10:25:27;;;;;;;0.93;0.85;;;7.50;99.90;;;;;;5046234;28;20060;-80
2022/12/23 10:27:53;;;;;;;1.08;0.93;;;7.40;99.90;;;;;;5027543;28;20348;-80
2022/12/23 10:30:26;;;;;;;0.75;0.75;;;7.50;99.90;;;;;;5035340;28;20045;-80
2022/12/23 10:32:58;;;;;;;1.20;0.98;;;7.50;99.90;;;;;;5034538;28;20049;-79
2022/12/23 10:36:12;;;;;;;2.72;1.48;;;7.50;99.90;;;;;;5034763;28;20041;-80
2022/12/23 10:39:06;;;;;;;2.15;1.63;;;7.50;99.90;;;;;;4974809;28;20077;-80
2022/12/23 10:42:06;;;;;;;0.80;0.50;;;7.60;99.90;;;;;;4955876;28;20043;-80
2022/12/23 10:44:59;;;;;;;1.60;0.52;;;7.60;99.90;;;;;;5046675;28;20092;-80
2022/12/23 10:47:36;;;;;;;1.90;1.13;;;7.60;99.90;;;;;;5051338;28;20045;-80
2022/12/23 10:50:44;;;;;;;1.25;0.95;;;7.70;99.90;;;;;;5045642;28;20560;-80
2022/12/23 10:53:16;;;;;;;0.00;0.00;;;7.80;99.90;;;;;;5034900;28;20057;-80
2022/12/23 10:55:42;;;;;;;1.88;0.85;;;7.80;99.90;;;;;;5053750;28;20044;-80
2022/12/23 10:58:13;;;;;;;1.40;0.95;;;7.80;99.90;;;;;;5054324;28;20712;-80
2022/12/23 11:00:43;;;;;;;1.88;1.70;;;7.70;99.90;;;;;;5020620;28;20155;-80
2022/12/23 11:03:29;;;;;;;0.47;0.47;;;7.70;99.90;;;;;;5036378;28;20175;-80
2022/12/23 11:05:57;;;;;;;3.10;2.25;;;7.70;99.90;;;;;;5050925;28;20411;-80
2022/12/23 11:08:26;;;;;;;0.55;0.52;;;7.60;99.90;;;;;;5034324;28;20060;-80
2022/12/23 11:10:53;;;;;;;0.50;0.50;;;7.60;99.90;;;;;;5033942;28;20045;-80
2022/12/23 11:13:40;;;;;;;0.32;0.30;;;7.50;99.90;;;;;;5034497;28;20045;-80
2022/12/23 11:16:26;;;;;;;1.50;1.40;;;7.50;99.90;;;;;;5034054;28;20052;-80
2022/12/23 11:19:03;;;;;;;0.47;0.35;;;7.50;99.90;;;;;;5034255;28;20042;-80
2022/12/23 11:21:30;;;;;;;0.47;0.45;;;7.50;99.90;;;;;;5033959;28;20053;-80
2022/12/23 11:24:18;;;;;;;2.97;1.35;;;7.50;99.90;;;;;;5033896;28;20112;-80
2022/12/23 11:26:50;;;;;;;0.52;0.52;;;7.50;99.90;;;;;;5030855;28;20049;-80
2022/12/23 11:29:26;;;;;;;1.77;0.47;;;7.50;99.90;;;;;;5031045;28;20167;-80
2022/12/23 11:31:53;;;;;;;5.40;0.85;;;7.60;99.90;;;;;;5031745;28;20088;-80
2022/12/23 11:34:22;;;;;;;0.75;0.75;;;7.60;99.90;;;;;;5030317;28;20052;-80
2022/12/23 11:36:57;;;;;;;0.40;0.40;;;7.60;99.90;;;;;;5013309;28;20072;-80
2022/12/23 11:39:31;;;;;;;1.42;1.33;;;7.60;99.90;;;;;;5031427;28;20149;-80
2022/12/23 11:42:14;;;;;;;2.92;1.88;;;7.60;99.90;;;;;;5031062;28;20572;-81
2022/12/23 11:44:43;;;;;;;2.20;1.48;;;7.70;99.90;;;;;;5030512;28;20049;-80
2022/12/23 11:47:21;;;;;;;1.17;1.05;;;7.70;99.90;;;;;;5047452;28;20048;-79
2022/12/23 11:49:50;;;;;;;3.50;0.95;;;7.70;99.90;;;;;;5050992;28;20045;-79
2022/12/23 11:52:19;;;;;;;4.13;0.82;;;7.60;99.90;;;;;;5050207;28;20060;-79
2022/12/23 11:54:51;;;;;;;0.20;0.20;;;7.70;99.90;;;;;;5050756;28;20049;-80
2022/12/23 11:57:31;;;;;;;1.10;0.70;;;7.70;99.90;;;;;;5051004;28;20049;-80
2022/12/23 12:00:00;;;;;;;1.73;1.02;;;7.70;99.90;;;;;;5050173;28;20106;-80
2022/12/23 12:02:39;;;;;;;0.05;0.05;;;7.70;99.90;;;;;;5050120;28;20497;-80
2022/12/23 12:05:21;;;;;;;1.48;0.77;;;7.70;99.90;;;;;;5054056;28;20067;-80
2022/12/23 12:07:48;;;;;;;3.47;1.55;;;7.70;99.90;;;;;;5059669;28;20124;-80
2022/12/23 12:10:30;;;;;;;1.13;1.02;;;7.70;99.90;;;;;;5050299;28;20052;-80
2022/12/23 12:13:01;;;;;;;2.05;1.55;;;7.80;99.90;;;;;;5049929;28;20041;-80
2022/12/23 12:15:55;;;;;;;0.70;0.63;;;7.80;99.90;;;;;;5049411;28;20053;-80
2022/12/23 12:18:22;;;;;;;0.52;0.45;;;7.70;99.90;;;;;;5033310;28;20053;-80
2022/12/23 12:20:52;;;;;;;0.82;0.80;;;7.70;99.90;;;;;;5050112;28;20044;-80
2022/12/23 12:23:44;;;;;;;1.23;0.85;;;7.70;99.90;;;;;;5050037;28;20520;-80
2022/12/23 12:26:27;;;;;;;2.33;0.88;;;7.70;99.90;;;;;;5049771;28;20059;-80
2022/12/23 12:28:58;;;;;;;1.95;1.35;;;7.80;99.90;;;;;;5049371;28;20045;-81
2022/12/23 12:31:28;;;;;;;4.28;1.60;;;7.70;99.90;;;;;;5048559;28;20110;-80
2022/12/23 12:34:13;;;;;;;3.15;1.50;;;7.70;99.90;;;;;;5048625;28;20469;-80
2022/12/23 12:36:59;;;;;;;0.80;0.70;;;7.70;99.90;;;;;;5048921;28;20357;-80
2022/12/23 12:39:35;;;;;;;1.45;0.95;;;7.70;99.90;;;;;;5048499;28;20061;-80
2022/12/23 12:42:22;;;;;;;0.28;0.28;;;7.70;99.90;;;;;;5042601;28;20131;-80
2022/12/23 12:45:20;;;;;;;0.75;0.75;;;7.80;99.90;;;;;;5035430;28;20048;-79
2022/12/23 12:48:45;;;;;;;0.40;0.40;;;7.70;99.90;;;;;;5045769;28;20069;-80
2022/12/23 12:51:41;;;;;;;1.20;0.77;;;7.70;99.90;;;;;;4956429;28;20051;-79
2022/12/23 12:54:34;;;;;;;0.63;0.63;;;7.70;99.90;;;;;;4939373;29;20136;-79
2022/12/23 12:57:01;;;;;;;3.45;2.03;;;7.70;99.90;;;;;;5044435;28;20048;-80
2022/12/23 12:59:35;;;;;;;3.20;2.53;;;7.80;99.90;;;;;;5051279;28;20130;-79
2022/12/23 13:02:35;;;;;;;1.55;1.45;;;7.80;99.90;;;;;;5049876;28;20509;-80
2022/12/23 13:05:33;;;;;;;0.70;0.70;;;7.70;99.90;;;;;;5045118;28;20136;-81
2022/12/23 13:08:39;;;;;;;0.05;0.05;;;7.80;99.90;;;;;;5031979;28;20393;-80
2022/12/23 13:11:17;;;;;;;0.20;0.20;;;7.80;99.90;;;;;;5032538;28;20045;-80
2022/12/23 13:14:08;;;;;;;3.42;1.00;;;7.70;99.90;;;;;;5054566;28;20049;-80
2022/12/23 13:17:06;;;;;;;0.52;0.52;;;7.70;99.90;;;;;;5054778;28;20045;-80
2022/12/23 13:19:44;;;;;;;0.77;0.73;;;7.70;99.90;;;;;;5046973;28;20158;-81
2022/12/23 13:22:15;;;;;;;1.45;1.25;;;7.70;99.90;;;;;;5047141;28;20438;-80
2022/12/23 13:25:14;;;;;;;0.55;0.55;;;7.70;99.90;;;;;;5047230;28;20127;-80
2022/12/23 13:27:56;;;;;;;1.27;1.17;;;7.70;99.90;;;;;;5051023;28;20052;-80
2022/12/23 13:30:26;;;;;;;5.47;0.70;;;7.70;99.90;;;;;;5051685;28;20041;-81
2022/12/23 13:33:07;;;;;;;0.75;0.75;;;7.60;99.90;;;;;;5054367;28;20060;-80
2022/12/23 13:36:10;;;;;;;2.45;1.95;;;7.60;99.90;;;;;;5047186;28;20045;-80
2022/12/23 13:38:53;;;;;;;1.73;1.17;;;7.60;99.90;;;;;;5047016;28;20049;-80
2022/12/23 13:41:45;;;;;;;2.90;1.33;;;7.50;99.90;;;;;;5048096;28;20515;-80
2022/12/23 13:44:13;;;;;;;0.45;0.43;;;7.50;99.90;;;;;;5026792;28;20075;-80
2022/12/23 13:46:51;;;;;;;1.42;1.13;;;7.50;99.90;;;;;;5026425;28;20060;-80
2022/12/23 13:49:35;;;;;;;0.70;0.70;;;7.40;99.90;;;;;;5026105;28;20045;-80